createdAt,value
2023-02-27T00:00:59.942Z,1023.22
2023-02-27T00:01:59.904Z,1023.20
2023-02-27T00:02:59.945Z,1023.22
2023-02-27T00:03:59.941Z,1023.24
2023-02-27T00:04:59.892Z,1023.24
2023-02-27T00:05:59.922Z,1023.25
2023-02-27T00:06:59.906Z,1023.27
2023-02-27T00:07:59.857Z,1023.26
2023-02-27T00:08:59.887Z,1023.26
2023-02-27T00:09:59.835Z,1023.25
2023-02-27T00:10:59.810Z,1023.26
2023-02-27T00:11:59.833Z,1023.25
2023-02-27T00:12:59.797Z,1023.23
2023-02-27T00:13:59.811Z,1023.24
2023-02-27T00:14:59.799Z,1023.25
2023-02-27T00:15:59.810Z,1023.24
2023-02-27T00:16:59.753Z,1023.21
2023-02-27T00:17:59.755Z,1023.20
2023-02-27T00:18:59.758Z,1023.19
2023-02-27T00:19:59.738Z,1023.18
2023-02-27T00:20:59.707Z,1023.19
2023-02-27T00:21:59.715Z,1023.16
2023-02-27T00:22:59.726Z,1023.14
2023-02-27T00:23:59.706Z,1023.12
2023-02-27T00:24:59.677Z,1023.12
2023-02-27T00:25:59.701Z,1023.11
2023-02-27T00:26:59.670Z,1023.09
2023-02-27T00:27:59.661Z,1023.05
2023-02-27T00:28:59.641Z,1023.06
2023-02-27T00:29:59.636Z,1023.04
2023-02-27T00:30:59.751Z,1023.04
2023-02-27T00:31:59.758Z,1023.03
2023-02-27T00:32:59.595Z,1023.04
2023-02-27T00:33:59.630Z,1023.05
2023-02-27T00:34:59.581Z,1023.05
2023-02-27T00:35:59.584Z,1023.07
2023-02-27T00:36:59.570Z,1023.07
2023-02-27T00:37:59.559Z,1023.08
2023-02-27T00:38:59.530Z,1023.08
2023-02-27T00:39:59.551Z,1023.07
2023-02-27T00:40:59.523Z,1023.07
2023-02-27T00:41:59.523Z,1023.06
2023-02-27T00:42:59.507Z,1023.05
2023-02-27T00:43:59.500Z,1023.06
2023-02-27T00:44:59.491Z,1023.05
2023-02-27T00:45:59.490Z,1023.04
2023-02-27T00:46:59.456Z,1023.07
2023-02-27T00:47:59.472Z,1023.06
2023-02-27T00:48:59.440Z,1023.08
2023-02-27T00:49:59.428Z,1023.06
2023-02-27T00:50:59.439Z,1023.07
2023-02-27T00:51:59.433Z,1023.09
2023-02-27T00:52:59.387Z,1023.10
2023-02-27T00:53:59.403Z,1023.09
2023-02-27T00:54:59.387Z,1023.06
2023-02-27T00:55:59.405Z,1023.07
2023-02-27T00:56:59.388Z,1023.11
2023-02-27T00:57:59.345Z,1023.09
2023-02-27T00:58:59.347Z,1023.13
2023-02-27T00:59:59.340Z,1023.14
2023-02-27T01:00:59.367Z,1023.14
2023-02-27T01:01:59.324Z,1023.16
2023-02-27T01:02:59.295Z,1023.15
2023-02-27T01:03:59.297Z,1023.15
2023-02-27T01:04:59.284Z,1023.15
2023-02-27T01:05:59.286Z,1023.13
2023-02-27T01:06:59.308Z,1023.14
2023-02-27T01:07:59.266Z,1023.12
2023-02-27T01:08:59.259Z,1023.12
2023-02-27T01:09:59.238Z,1023.13
2023-02-27T01:10:59.230Z,1023.11
2023-02-27T01:11:59.209Z,1023.12
2023-02-27T01:12:59.259Z,1023.11
2023-02-27T01:13:59.213Z,1023.11
2023-02-27T01:14:59.161Z,1023.09
2023-02-27T01:15:59.194Z,1023.10
2023-02-27T01:16:59.175Z,1023.09
2023-02-27T01:17:59.190Z,1023.08
2023-02-27T01:18:59.163Z,1023.08
2023-02-27T01:19:59.146Z,1023.06
2023-02-27T01:20:59.112Z,1023.06
2023-02-27T01:21:59.125Z,1023.07
2023-02-27T01:22:59.106Z,1023.06
2023-02-27T01:23:59.126Z,1023.07
2023-02-27T01:24:59.134Z,1023.07
2023-02-27T01:25:59.087Z,1023.08
2023-02-27T01:26:59.124Z,1023.08
2023-02-27T01:27:59.091Z,1023.05
2023-02-27T01:28:59.039Z,1023.02
2023-02-27T01:29:59.057Z,1023.03
2023-02-27T01:30:59.097Z,1023.01
2023-02-27T01:31:59.111Z,1023.02
2023-02-27T01:32:59.027Z,1023.02
2023-02-27T01:33:59.018Z,1023.04
2023-02-27T01:34:58.990Z,1023.03
2023-02-27T01:35:58.990Z,1023.04
2023-02-27T01:36:58.974Z,1023.02
2023-02-27T01:37:58.956Z,1023.00
2023-02-27T01:38:58.963Z,1022.99
2023-02-27T01:39:58.956Z,1023.00
2023-02-27T01:40:58.936Z,1023.00
2023-02-27T01:41:58.942Z,1022.99
2023-02-27T01:42:58.898Z,1022.99
2023-02-27T01:43:58.903Z,1022.99
2023-02-27T01:44:58.892Z,1022.98
2023-02-27T01:45:58.945Z,1022.97
2023-02-27T01:46:58.899Z,1022.95
2023-02-27T01:47:58.907Z,1022.97
2023-02-27T01:48:58.841Z,1022.96
2023-02-27T01:49:58.866Z,1022.95
2023-02-27T01:50:58.863Z,1022.98
2023-02-27T01:51:58.835Z,1022.96
2023-02-27T01:52:58.822Z,1022.95
2023-02-27T01:53:58.829Z,1022.94
2023-02-27T01:54:58.788Z,1022.93
2023-02-27T01:55:58.806Z,1022.91
2023-02-27T01:56:58.792Z,1022.92
2023-02-27T01:57:58.760Z,1022.91
2023-02-27T01:58:58.733Z,1022.92
2023-02-27T01:59:58.753Z,1022.91
2023-02-27T02:00:58.751Z,1022.89
2023-02-27T02:01:58.756Z,1022.89
2023-02-27T02:02:58.731Z,1022.91
2023-02-27T02:03:58.700Z,1022.91
2023-02-27T02:04:58.694Z,1022.92
2023-02-27T02:05:58.720Z,1022.93
2023-02-27T02:06:58.705Z,1022.93
2023-02-27T02:07:58.719Z,1022.93
2023-02-27T02:08:58.699Z,1022.95
2023-02-27T02:09:58.647Z,1022.95
2023-02-27T02:10:58.650Z,1022.97
2023-02-27T02:11:58.618Z,1022.97
2023-02-27T02:12:58.647Z,1022.97
2023-02-27T02:13:58.656Z,1022.96
2023-02-27T02:14:58.613Z,1022.95
2023-02-27T02:15:58.576Z,1022.96
2023-02-27T02:16:58.674Z,1022.96
2023-02-27T02:17:58.604Z,1022.97
2023-02-27T02:18:58.576Z,1022.95
2023-02-27T02:19:58.538Z,1022.98
2023-02-27T02:20:58.520Z,1022.98
2023-02-27T02:21:58.540Z,1022.99
2023-02-27T02:22:58.552Z,1022.99
2023-02-27T02:23:58.519Z,1022.99
2023-02-27T02:24:58.509Z,1022.99
2023-02-27T02:25:58.493Z,1022.99
2023-02-27T02:26:58.483Z,1022.99
2023-02-27T02:27:58.485Z,1022.99
2023-02-27T02:28:58.450Z,1023.00
2023-02-27T02:29:58.486Z,1023.00
2023-02-27T02:30:58.523Z,1023.01
2023-02-27T02:31:58.538Z,1023.01
2023-02-27T02:32:58.397Z,1023.00
2023-02-27T02:33:58.395Z,1023.03
2023-02-27T02:34:58.380Z,1023.03
2023-02-27T02:35:58.425Z,1023.02
2023-02-27T02:36:58.374Z,1023.00
2023-02-27T02:37:58.384Z,1023.01
2023-02-27T02:38:58.363Z,1023.02
2023-02-27T02:39:58.402Z,1023.04
2023-02-27T02:40:58.331Z,1023.04
2023-02-27T02:41:58.347Z,1023.05
2023-02-27T02:42:58.316Z,1023.05
2023-02-27T02:43:58.339Z,1023.05
2023-02-27T02:44:58.299Z,1023.06
2023-02-27T02:45:58.341Z,1023.05
2023-02-27T02:46:58.281Z,1023.08
2023-02-27T02:47:58.263Z,1023.08
2023-02-27T02:48:58.273Z,1023.09
2023-02-27T02:49:58.357Z,1023.09
2023-02-27T02:50:58.215Z,1023.10
2023-02-27T02:51:58.257Z,1023.10
2023-02-27T02:52:59.321Z,1023.10
2023-02-27T02:53:58.220Z,1023.10
2023-02-27T02:54:58.184Z,1023.10
2023-02-27T02:55:58.212Z,1023.10
2023-02-27T02:56:58.218Z,1023.11
2023-02-27T02:57:58.192Z,1023.10
2023-02-27T02:58:58.173Z,1023.10
2023-02-27T02:59:58.185Z,1023.11
2023-02-27T03:00:58.138Z,1023.13
2023-02-27T03:01:58.198Z,1023.14
2023-02-27T03:02:58.173Z,1023.14
2023-02-27T03:03:58.129Z,1023.14
2023-02-27T03:04:58.097Z,1023.13
2023-02-27T03:05:58.112Z,1023.12
2023-02-27T03:06:58.104Z,1023.10
2023-02-27T03:07:58.068Z,1023.09
2023-02-27T03:08:58.086Z,1023.09
2023-02-27T03:09:58.057Z,1023.08
2023-02-27T03:10:58.066Z,1023.07
2023-02-27T03:11:58.050Z,1023.06
2023-02-27T03:12:59.556Z,1023.06
2023-02-27T03:13:58.009Z,1023.06
2023-02-27T03:14:58.023Z,1023.07
2023-02-27T03:15:58.033Z,1023.07
2023-02-27T03:16:57.997Z,1023.09
2023-02-27T03:17:57.963Z,1023.10
2023-02-27T03:18:57.966Z,1023.11
2023-02-27T03:19:57.936Z,1023.12
2023-02-27T03:20:57.964Z,1023.12
2023-02-27T03:21:57.930Z,1023.13
2023-02-27T03:22:57.929Z,1023.13
2023-02-27T03:23:57.908Z,1023.16
2023-02-27T03:24:57.962Z,1023.16
2023-02-27T03:25:58.469Z,1023.17
2023-02-27T03:26:57.897Z,1023.16
2023-02-27T03:27:57.862Z,1023.16
2023-02-27T03:28:57.892Z,1023.16
2023-02-27T03:29:57.873Z,1023.15
2023-02-27T03:30:57.920Z,1023.16
2023-02-27T03:31:57.979Z,1023.16
2023-02-27T03:32:57.820Z,1023.17
2023-02-27T03:33:58.596Z,1023.18
2023-02-27T03:34:57.801Z,1023.19
2023-02-27T03:35:57.771Z,1023.18
2023-02-27T03:36:57.772Z,1023.17
2023-02-27T03:37:57.801Z,1023.17
2023-02-27T03:38:57.767Z,1023.17
2023-02-27T03:39:57.750Z,1023.17
2023-02-27T03:40:57.756Z,1023.19
2023-02-27T03:41:57.727Z,1023.19
2023-02-27T03:42:57.755Z,1023.20
2023-02-27T03:43:57.702Z,1023.20
2023-02-27T03:44:57.716Z,1023.19
2023-02-27T03:45:57.720Z,1023.20
2023-02-27T03:46:57.697Z,1023.18
2023-02-27T03:47:57.666Z,1023.19
2023-02-27T03:48:57.661Z,1023.19
2023-02-27T03:49:57.705Z,1023.17
2023-02-27T03:50:57.630Z,1023.16
2023-02-27T03:51:57.645Z,1023.17
2023-02-27T03:52:57.621Z,1023.18
2023-02-27T03:53:57.706Z,1023.19
2023-02-27T03:54:57.619Z,1023.21
2023-02-27T03:55:57.589Z,1023.22
2023-02-27T03:56:57.600Z,1023.23
2023-02-27T03:57:57.570Z,1023.24
2023-02-27T03:58:57.559Z,1023.25
2023-02-27T03:59:57.556Z,1023.27
2023-02-27T04:00:57.569Z,1023.28
2023-02-27T04:01:57.579Z,1023.29
2023-02-27T04:02:57.564Z,1023.29
2023-02-27T04:03:57.514Z,1023.29
2023-02-27T04:04:57.489Z,1023.30
2023-02-27T04:05:57.535Z,1023.30
2023-02-27T04:06:57.492Z,1023.31
2023-02-27T04:07:57.466Z,1023.31
2023-02-27T04:08:57.458Z,1023.33
2023-02-27T04:09:57.441Z,1023.34
2023-02-27T04:10:57.450Z,1023.35
2023-02-27T04:11:57.425Z,1023.36
2023-02-27T04:12:57.449Z,1023.36
2023-02-27T04:13:57.393Z,1023.36
2023-02-27T04:14:57.399Z,1023.37
2023-02-27T04:15:57.438Z,1023.38
2023-02-27T04:16:57.384Z,1023.39
2023-02-27T04:17:57.363Z,1023.41
2023-02-27T04:18:57.406Z,1023.42
2023-02-27T04:19:57.367Z,1023.43
2023-02-27T04:20:57.348Z,1023.45
2023-02-27T04:21:57.323Z,1023.45
2023-02-27T04:22:57.374Z,1023.46
2023-02-27T04:23:57.316Z,1023.46
2023-02-27T04:24:57.292Z,1023.46
2023-02-27T04:25:57.274Z,1023.46
2023-02-27T04:26:57.285Z,1023.46
2023-02-27T04:27:57.282Z,1023.46
2023-02-27T04:28:57.310Z,1023.46
2023-02-27T04:29:57.270Z,1023.49
2023-02-27T04:30:57.267Z,1023.51
2023-02-27T04:31:57.410Z,1023.51
2023-02-27T04:32:57.228Z,1023.51
2023-02-27T04:33:57.231Z,1023.49
2023-02-27T04:34:57.228Z,1023.49
2023-02-27T04:35:57.249Z,1023.49
2023-02-27T04:36:57.174Z,1023.50
2023-02-27T04:37:57.178Z,1023.49
2023-02-27T04:38:57.177Z,1023.47
2023-02-27T04:39:57.163Z,1023.47
2023-02-27T04:40:57.138Z,1023.46
2023-02-27T04:41:57.151Z,1023.47
2023-02-27T04:42:57.144Z,1023.48
2023-02-27T04:43:57.116Z,1023.50
2023-02-27T04:44:57.157Z,1023.53
2023-02-27T04:45:57.177Z,1023.53
2023-02-27T04:46:57.092Z,1023.53
2023-02-27T04:47:57.067Z,1023.55
2023-02-27T04:48:57.068Z,1023.54
2023-02-27T04:49:57.064Z,1023.56
2023-02-27T04:50:57.057Z,1023.56
2023-02-27T04:51:57.113Z,1023.57
2023-02-27T04:52:57.038Z,1023.57
2023-02-27T04:53:57.023Z,1023.57
2023-02-27T04:54:57.021Z,1023.55
2023-02-27T04:55:57.012Z,1023.54
2023-02-27T04:56:57.032Z,1023.54
2023-02-27T04:57:56.992Z,1023.55
2023-02-27T04:58:57.000Z,1023.55
2023-02-27T04:59:56.990Z,1023.54
2023-02-27T05:00:56.986Z,1023.54
2023-02-27T05:01:56.997Z,1023.55
2023-02-27T05:02:56.950Z,1023.57
2023-02-27T05:03:58.893Z,1023.58
2023-02-27T05:04:56.922Z,1023.58
2023-02-27T05:05:56.924Z,1023.59
2023-02-27T05:06:56.899Z,1023.59
2023-02-27T05:07:56.881Z,1023.60
2023-02-27T05:08:56.921Z,1023.59
2023-02-27T05:09:56.848Z,1023.58
2023-02-27T05:10:56.880Z,1023.57
2023-02-27T05:11:56.854Z,1023.56
2023-02-27T05:12:56.852Z,1023.54
2023-02-27T05:13:56.811Z,1023.53
2023-02-27T05:14:56.847Z,1023.52
2023-02-27T05:15:56.858Z,1023.53
2023-02-27T05:16:56.824Z,1023.53
2023-02-27T05:17:56.803Z,1023.54
2023-02-27T05:18:56.860Z,1023.56
2023-02-27T05:19:56.769Z,1023.57
2023-02-27T05:20:56.771Z,1023.57
2023-02-27T05:21:56.870Z,1023.57
2023-02-27T05:22:56.756Z,1023.57
2023-02-27T05:23:57.545Z,1023.57
2023-02-27T05:24:56.760Z,1023.58
2023-02-27T05:25:56.692Z,1023.60
2023-02-27T05:26:56.697Z,1023.61
2023-02-27T05:27:56.678Z,1023.64
2023-02-27T05:28:56.675Z,1023.66
2023-02-27T05:29:56.669Z,1023.65
2023-02-27T05:30:56.704Z,1023.67
2023-02-27T05:31:56.761Z,1023.68
2023-02-27T05:32:56.648Z,1023.70
2023-02-27T05:33:56.644Z,1023.72
2023-02-27T05:34:56.608Z,1023.76
2023-02-27T05:35:56.609Z,1023.77
2023-02-27T05:36:56.611Z,1023.79
2023-02-27T05:37:56.622Z,1023.80
2023-02-27T05:38:56.574Z,1023.81
2023-02-27T05:39:56.582Z,1023.82
2023-02-27T05:40:56.563Z,1023.83
2023-02-27T05:41:56.575Z,1023.85
2023-02-27T05:42:56.538Z,1023.85
2023-02-27T05:43:56.527Z,1023.86
2023-02-27T05:44:56.527Z,1023.87
2023-02-27T05:45:56.552Z,1023.90
2023-02-27T05:46:56.448Z,1023.91
2023-02-27T05:47:56.433Z,1023.92
2023-02-27T05:48:56.451Z,1023.93
2023-02-27T05:49:56.405Z,1023.92
2023-02-27T05:50:56.521Z,1023.92
2023-02-27T05:51:57.270Z,1023.92
2023-02-27T05:52:56.372Z,1023.95
2023-02-27T05:53:56.407Z,1023.97
2023-02-27T05:54:56.370Z,1023.98
2023-02-27T05:55:56.352Z,1024.00
2023-02-27T05:56:56.332Z,1024.00
2023-02-27T05:57:56.356Z,1024.00
2023-02-27T05:58:56.358Z,1024.03
2023-02-27T05:59:56.298Z,1024.03
2023-02-27T06:00:56.308Z,1024.04
2023-02-27T06:01:56.359Z,1024.04
2023-02-27T06:02:56.292Z,1024.05
2023-02-27T06:03:56.294Z,1024.06
2023-02-27T06:04:56.277Z,1024.08
2023-02-27T06:05:56.248Z,1024.09
2023-02-27T06:06:56.241Z,1024.10
2023-02-27T06:07:56.211Z,1024.11
2023-02-27T06:08:56.207Z,1024.12
2023-02-27T06:09:56.206Z,1024.13
2023-02-27T06:10:56.241Z,1024.15
2023-02-27T06:11:56.210Z,1024.15
2023-02-27T06:12:56.192Z,1024.16
2023-02-27T06:13:56.194Z,1024.18
2023-02-27T06:14:56.192Z,1024.20
2023-02-27T06:15:56.152Z,1024.21
2023-02-27T06:16:56.214Z,1024.21
2023-02-27T06:17:56.122Z,1024.22
2023-02-27T06:18:56.128Z,1024.24
2023-02-27T06:19:56.106Z,1024.24
2023-02-27T06:20:56.124Z,1024.24
2023-02-27T06:21:56.099Z,1024.24
2023-02-27T06:22:56.092Z,1024.25
2023-02-27T06:23:56.055Z,1024.27
2023-02-27T06:24:56.060Z,1024.24
2023-02-27T06:25:56.050Z,1024.27
2023-02-27T06:26:56.082Z,1024.28
2023-02-27T06:27:56.026Z,1024.29
2023-02-27T06:28:56.028Z,1024.31
2023-02-27T06:29:56.058Z,1024.32
2023-02-27T06:30:56.043Z,1024.32
2023-02-27T06:31:55.983Z,1024.33
2023-02-27T06:32:55.985Z,1024.33
2023-02-27T06:33:55.992Z,1024.35
2023-02-27T06:34:55.974Z,1024.34
2023-02-27T06:35:55.992Z,1024.33
2023-02-27T06:36:55.955Z,1024.34
2023-02-27T06:37:55.955Z,1024.35
2023-02-27T06:38:55.953Z,1024.38
2023-02-27T06:39:55.907Z,1024.38
2023-02-27T06:40:55.919Z,1024.40
2023-02-27T06:41:55.923Z,1024.42
2023-02-27T06:42:55.918Z,1024.43
2023-02-27T06:43:55.896Z,1024.43
2023-02-27T06:44:55.853Z,1024.43
2023-02-27T06:45:55.937Z,1024.44
2023-02-27T06:46:55.830Z,1024.45
2023-02-27T06:47:55.815Z,1024.45
2023-02-27T06:48:55.817Z,1024.45
2023-02-27T06:49:55.824Z,1024.46
2023-02-27T06:50:55.834Z,1024.46
2023-02-27T06:51:55.789Z,1024.48
2023-02-27T06:52:55.787Z,1024.48
2023-02-27T06:53:55.746Z,1024.49
2023-02-27T06:54:55.750Z,1024.51
2023-02-27T06:55:55.729Z,1024.53
2023-02-27T06:56:55.744Z,1024.55
2023-02-27T06:57:55.731Z,1024.56
2023-02-27T06:58:56.539Z,1024.58
2023-02-27T06:59:55.698Z,1024.59
2023-02-27T07:00:55.725Z,1024.60
2023-02-27T07:01:55.688Z,1024.64
2023-02-27T07:02:55.694Z,1024.65
2023-02-27T07:03:55.657Z,1024.67
2023-02-27T07:04:55.726Z,1024.67
2023-02-27T07:05:55.621Z,1024.67
2023-02-27T07:07:35.977Z,1024.67
2023-02-27T07:07:57.787Z,1024.68
2023-02-27T07:09:06.593Z,1024.69
2023-02-27T07:09:55.648Z,1024.68
2023-02-27T07:10:55.651Z,1024.69
2023-02-27T07:11:55.570Z,1024.68
2023-02-27T07:12:55.577Z,1024.69
2023-02-27T07:13:55.617Z,1024.69
2023-02-27T07:14:55.557Z,1024.70
2023-02-27T07:15:55.569Z,1024.69
2023-02-27T07:16:55.561Z,1024.71
2023-02-27T07:17:55.560Z,1024.72
2023-02-27T07:18:55.532Z,1024.72
2023-02-27T07:19:55.509Z,1024.72
2023-02-27T07:20:55.481Z,1024.73
2023-02-27T07:21:55.474Z,1024.74
2023-02-27T07:22:55.510Z,1024.76
2023-02-27T07:23:55.480Z,1024.77
2023-02-27T07:24:55.475Z,1024.79
2023-02-27T07:25:55.453Z,1024.80
2023-02-27T07:26:55.450Z,1024.80
2023-02-27T07:27:55.432Z,1024.80
2023-02-27T07:28:55.432Z,1024.80
2023-02-27T07:29:55.437Z,1024.78
2023-02-27T07:30:55.453Z,1024.77
2023-02-27T07:31:55.403Z,1024.78
2023-02-27T07:32:55.378Z,1024.78
2023-02-27T07:33:55.401Z,1024.77
2023-02-27T07:34:55.419Z,1024.77
2023-02-27T07:35:55.359Z,1024.77
2023-02-27T07:36:55.417Z,1024.77
2023-02-27T07:37:55.319Z,1024.79
2023-02-27T07:38:55.304Z,1024.82
2023-02-27T07:39:55.381Z,1024.83
2023-02-27T07:40:55.338Z,1024.85
2023-02-27T07:41:55.326Z,1024.87
2023-02-27T07:42:55.307Z,1024.88
2023-02-27T07:43:55.267Z,1024.88
2023-02-27T07:44:55.236Z,1024.89
2023-02-27T07:45:55.269Z,1024.89
2023-02-27T07:46:55.316Z,1024.90
2023-02-27T07:47:55.247Z,1024.89
2023-02-27T07:48:55.227Z,1024.89
2023-02-27T07:49:55.282Z,1024.90
2023-02-27T07:50:55.250Z,1024.89
2023-02-27T07:51:55.199Z,1024.89
2023-02-27T07:52:55.200Z,1024.91
2023-02-27T07:53:55.164Z,1024.91
2023-02-27T07:54:55.174Z,1024.91
2023-02-27T07:55:55.181Z,1024.93
2023-02-27T07:56:55.150Z,1024.94
2023-02-27T07:57:55.128Z,1024.94
2023-02-27T07:58:55.105Z,1024.94
2023-02-27T07:59:55.160Z,1024.94
2023-02-27T08:00:55.099Z,1024.96
2023-02-27T08:01:55.090Z,1024.97
2023-02-27T08:02:55.094Z,1024.96
2023-02-27T08:03:55.113Z,1024.96
2023-02-27T08:04:55.164Z,1024.97
2023-02-27T08:05:55.114Z,1024.99
2023-02-27T08:06:55.039Z,1025.01
2023-02-27T08:07:55.033Z,1025.02
2023-02-27T08:08:55.038Z,1025.04
2023-02-27T08:09:55.038Z,1025.04
2023-02-27T08:10:54.993Z,1025.06
2023-02-27T08:11:55.024Z,1025.08
2023-02-27T08:12:55.582Z,1025.09
2023-02-27T08:14:00.540Z,1025.09
2023-02-27T08:14:54.953Z,1025.07
2023-02-27T08:15:54.984Z,1025.06
2023-02-27T08:16:54.935Z,1025.06
2023-02-27T08:17:54.933Z,1025.08
2023-02-27T08:18:54.943Z,1025.10
2023-02-27T08:19:54.907Z,1025.09
2023-02-27T08:20:54.928Z,1025.10
2023-02-27T08:21:54.916Z,1025.11
2023-02-27T08:22:54.878Z,1025.11
2023-02-27T08:23:54.883Z,1025.11
2023-02-27T08:24:54.850Z,1025.10
2023-02-27T08:25:54.898Z,1025.09
2023-02-27T08:26:54.850Z,1025.08
2023-02-27T08:27:54.871Z,1025.07
2023-02-27T08:28:54.882Z,1025.07
2023-02-27T08:29:54.879Z,1025.08
2023-02-27T08:30:54.800Z,1025.08
2023-02-27T08:31:54.998Z,1025.09
2023-02-27T08:32:54.782Z,1025.08
2023-02-27T08:34:04.555Z,1025.07
2023-02-27T08:34:54.899Z,1025.07
2023-02-27T08:35:54.827Z,1025.09
2023-02-27T08:36:54.799Z,1025.09
2023-02-27T08:37:54.748Z,1025.10
2023-02-27T08:38:54.714Z,1025.10
2023-02-27T08:39:54.748Z,1025.09
2023-02-27T08:40:54.678Z,1025.08
2023-02-27T08:41:54.712Z,1025.08
2023-02-27T08:42:54.703Z,1025.08
2023-02-27T08:43:54.693Z,1025.09
2023-02-27T08:44:54.648Z,1025.11
2023-02-27T08:45:54.752Z,1025.12
2023-02-27T08:46:54.626Z,1025.13
2023-02-27T08:47:54.736Z,1025.15
2023-02-27T08:48:54.692Z,1025.15
2023-02-27T08:49:54.625Z,1025.16
2023-02-27T08:50:56.221Z,1025.16
2023-02-27T08:51:54.631Z,1025.16
2023-02-27T08:52:54.556Z,1025.17
2023-02-27T08:53:54.603Z,1025.16
2023-02-27T08:54:54.579Z,1025.17
2023-02-27T08:55:54.591Z,1025.18
2023-02-27T08:56:54.562Z,1025.19
2023-02-27T08:57:54.540Z,1025.20
2023-02-27T08:58:54.542Z,1025.21
2023-02-27T08:59:54.596Z,1025.20
2023-02-27T09:00:54.542Z,1025.20
2023-02-27T09:01:54.518Z,1025.19
2023-02-27T09:02:54.587Z,1025.18
2023-02-27T09:03:54.490Z,1025.17
2023-02-27T09:04:54.489Z,1025.18
2023-02-27T09:05:54.465Z,1025.19
2023-02-27T09:06:54.481Z,1025.20
2023-02-27T09:07:54.447Z,1025.22
2023-02-27T09:08:54.418Z,1025.21
2023-02-27T09:09:54.418Z,1025.22
2023-02-27T09:10:54.402Z,1025.24
2023-02-27T09:11:54.524Z,1025.25
2023-02-27T09:12:54.387Z,1025.26
2023-02-27T09:13:54.383Z,1025.28
2023-02-27T09:14:54.345Z,1025.27
2023-02-27T09:15:54.408Z,1025.27
2023-02-27T09:16:54.402Z,1025.27
2023-02-27T09:17:54.341Z,1025.26
2023-02-27T09:18:54.308Z,1025.25
2023-02-27T09:19:56.514Z,1025.25
2023-02-27T09:20:54.327Z,1025.25
2023-02-27T09:21:54.292Z,1025.24
2023-02-27T09:22:54.341Z,1025.23
2023-02-27T09:23:54.270Z,1025.23
2023-02-27T09:24:54.267Z,1025.22
2023-02-27T09:25:54.345Z,1025.23
2023-02-27T09:26:54.270Z,1025.23
2023-02-27T09:27:54.270Z,1025.23
2023-02-27T09:28:54.246Z,1025.23
2023-02-27T09:29:54.208Z,1025.24
2023-02-27T09:30:54.184Z,1025.23
2023-02-27T09:31:54.324Z,1025.21
2023-02-27T09:32:54.243Z,1025.20
2023-02-27T09:33:54.207Z,1025.17
2023-02-27T09:34:54.170Z,1025.19
2023-02-27T09:35:54.210Z,1025.18
2023-02-27T09:36:54.163Z,1025.20
2023-02-27T09:37:54.135Z,1025.20
2023-02-27T09:38:54.186Z,1025.18
2023-02-27T09:39:54.156Z,1025.19
2023-02-27T09:40:54.124Z,1025.16
2023-02-27T09:41:54.067Z,1025.16
2023-02-27T09:42:54.087Z,1025.15
2023-02-27T09:43:54.078Z,1025.15
2023-02-27T09:44:54.052Z,1025.12
2023-02-27T09:45:54.067Z,1025.12
2023-02-27T09:46:54.076Z,1025.16
2023-02-27T09:47:54.048Z,1025.14
2023-02-27T09:48:54.034Z,1025.12
2023-02-27T09:49:53.998Z,1025.12
2023-02-27T09:50:54.023Z,1025.11
2023-02-27T09:51:53.984Z,1025.10
2023-02-27T09:52:54.006Z,1025.12
2023-02-27T09:53:54.018Z,1025.10
2023-02-27T09:54:54.003Z,1025.13
2023-02-27T09:55:54.022Z,1025.15
2023-02-27T09:56:53.917Z,1025.15
2023-02-27T09:57:53.918Z,1025.15
2023-02-27T09:58:53.953Z,1025.15
2023-02-27T09:59:53.925Z,1025.13
2023-02-27T10:00:53.878Z,1025.13
2023-02-27T10:01:53.902Z,1025.12
2023-02-27T10:02:54.062Z,1025.10
2023-02-27T10:03:53.970Z,1025.10
2023-02-27T10:04:53.854Z,1025.10
2023-02-27T10:05:53.911Z,1025.11
2023-02-27T10:06:53.844Z,1025.09
2023-02-27T10:07:53.925Z,1025.07
2023-02-27T10:08:53.841Z,1025.04
2023-02-27T10:09:53.822Z,1025.07
2023-02-27T10:10:53.880Z,1025.07
2023-02-27T10:11:53.779Z,1025.05
2023-02-27T10:12:53.757Z,1025.08
2023-02-27T10:13:53.748Z,1025.09
2023-02-27T10:14:53.762Z,1025.10
2023-02-27T10:15:53.753Z,1025.08
2023-02-27T10:16:53.836Z,1025.08
2023-02-27T10:17:53.737Z,1025.07
2023-02-27T10:18:53.691Z,1025.09
2023-02-27T10:19:53.790Z,1025.06
2023-02-27T10:20:53.659Z,1025.05
2023-02-27T10:21:53.728Z,1025.08
2023-02-27T10:22:53.663Z,1025.07
2023-02-27T10:23:53.711Z,1025.04
2023-02-27T10:24:53.636Z,1025.07
2023-02-27T10:25:53.622Z,1025.08
2023-02-27T10:26:53.603Z,1025.06
2023-02-27T10:27:53.710Z,1025.09
2023-02-27T10:28:53.628Z,1025.08
2023-02-27T10:29:53.644Z,1025.06
2023-02-27T10:30:53.628Z,1025.11
2023-02-27T10:31:53.799Z,1025.10
2023-02-27T10:32:53.541Z,1025.12
2023-02-27T10:33:53.542Z,1025.12
2023-02-27T10:34:53.561Z,1025.11
2023-02-27T10:35:53.748Z,1025.09
2023-02-27T10:36:53.636Z,1025.09
2023-02-27T10:37:53.553Z,1025.11
2023-02-27T10:38:53.607Z,1025.10
2023-02-27T10:39:53.511Z,1025.10
2023-02-27T10:40:53.527Z,1025.11
2023-02-27T10:41:53.492Z,1025.10
2023-02-27T10:42:53.558Z,1025.08
2023-02-27T10:43:53.443Z,1025.09
2023-02-27T10:44:53.611Z,1025.07
2023-02-27T10:45:53.481Z,1025.06
2023-02-27T10:46:53.505Z,1025.05
2023-02-27T10:47:53.388Z,1025.03
2023-02-27T10:48:53.462Z,1025.06
2023-02-27T10:49:53.464Z,1025.02
2023-02-27T10:50:53.397Z,1025.02
2023-02-27T10:51:53.363Z,1025.02
2023-02-27T10:52:53.452Z,1024.99
2023-02-27T10:53:53.362Z,1025.02
2023-02-27T10:54:53.361Z,1025.03
2023-02-27T10:55:53.360Z,1025.04
2023-02-27T10:56:53.308Z,1025.03
2023-02-27T10:57:53.368Z,1025.03
2023-02-27T10:58:53.267Z,1025.07
2023-02-27T10:59:53.336Z,1025.05
2023-02-27T11:00:53.254Z,1025.05
2023-02-27T11:01:53.376Z,1025.02
2023-02-27T11:02:53.263Z,1025.01
2023-02-27T11:03:53.259Z,1025.00
2023-02-27T11:04:53.244Z,1024.99
2023-02-27T11:05:53.204Z,1024.96
2023-02-27T11:06:53.216Z,1024.96
2023-02-27T11:07:53.215Z,1024.94
2023-02-27T11:08:53.179Z,1024.98
2023-02-27T11:09:53.233Z,1025.00
2023-02-27T11:10:53.136Z,1025.00
2023-02-27T11:11:53.212Z,1025.02
2023-02-27T11:12:53.274Z,1025.01
2023-02-27T11:13:53.140Z,1024.98
2023-02-27T11:14:53.112Z,1024.99
2023-02-27T11:15:53.215Z,1024.93
2023-02-27T11:16:53.110Z,1024.90
2023-02-27T11:17:53.102Z,1024.91
2023-02-27T11:18:53.048Z,1024.94
2023-02-27T11:19:53.069Z,1024.88
2023-02-27T11:20:53.047Z,1024.91
2023-02-27T11:21:53.070Z,1024.89
2023-02-27T11:22:53.018Z,1024.90
2023-02-27T11:23:53.050Z,1024.85
2023-02-27T11:24:53.057Z,1024.85
2023-02-27T11:25:52.999Z,1024.84
2023-02-27T11:26:52.968Z,1024.85
2023-02-27T11:27:52.987Z,1024.86
2023-02-27T11:28:53.295Z,1024.87
2023-02-27T11:29:52.955Z,1024.85
2023-02-27T11:30:53.014Z,1024.85
2023-02-27T11:31:52.961Z,1024.84
2023-02-27T11:32:52.965Z,1024.84
2023-02-27T11:33:52.926Z,1024.82
2023-02-27T11:34:52.942Z,1024.81
2023-02-27T11:35:57.542Z,1024.81
2023-02-27T11:36:52.892Z,1024.80
2023-02-27T11:37:52.925Z,1024.77
2023-02-27T11:38:52.856Z,1024.77
2023-02-27T11:39:52.896Z,1024.75
2023-02-27T11:40:52.861Z,1024.78
2023-02-27T11:41:52.879Z,1024.74
2023-02-27T11:42:52.841Z,1024.73
2023-02-27T11:43:52.806Z,1024.70
2023-02-27T11:44:52.883Z,1024.69
2023-02-27T11:46:18.842Z,1024.68
2023-02-27T11:46:52.848Z,1024.68
2023-02-27T11:47:52.806Z,1024.65
2023-02-27T11:48:52.775Z,1024.64
2023-02-27T11:49:52.776Z,1024.65
2023-02-27T11:50:52.800Z,1024.62
2023-02-27T11:51:52.758Z,1024.61
2023-02-27T11:52:52.729Z,1024.62
2023-02-27T11:53:52.736Z,1024.59
2023-02-27T11:54:52.720Z,1024.59
2023-02-27T11:55:52.756Z,1024.58
2023-02-27T11:56:52.726Z,1024.53
2023-02-27T11:57:52.653Z,1024.52
2023-02-27T11:58:52.665Z,1024.49
2023-02-27T11:59:52.685Z,1024.47
2023-02-27T12:00:52.656Z,1024.48
2023-02-27T12:01:52.622Z,1024.47
2023-02-27T12:02:52.667Z,1024.47
2023-02-27T12:03:52.702Z,1024.46
2023-02-27T12:04:52.605Z,1024.45
2023-02-27T12:05:52.600Z,1024.46